Terminal Aerodrome Forecast
Issued by NWS Topeka, KS

Home | Current Version | Previous Version | Text Only | Print | Product List | Glossary Off
Versions: 1 2 3 4 5 6 7 8 9 10 11 12 13 14 15 16 17 18 19 20 21 22 23 24 25 26

000
FTUS43 KTOP 221700
TAFTOP
TAF
KTOP 221736Z 2218/2318 16010KT P6SM FEW040
     FM230200 18007KT P6SM VCSH BKN035
      TEMPO 2304/2308 5SM -SHRA BR BKN025
     FM231100 21006KT P6SM BKN025=

USA.gov is the U.S. government's official web portal to all federal, state and local government web resources and services.